createdAt,value
2022-07-29T00:00:28.052Z,21.61
2022-07-29T00:15:33.682Z,21.49
2022-07-29T00:30:39.169Z,21.73
2022-07-29T00:45:45.121Z,21.83
2022-07-29T01:00:50.737Z,21.65
2022-07-29T01:16:01.636Z,21.40
2022-07-29T01:31:09.692Z,21.32
2022-07-29T01:46:23.785Z,21.10
2022-07-29T02:01:32.288Z,20.64
2022-07-29T02:16:40.542Z,20.76
2022-07-29T02:31:48.481Z,20.59
2022-07-29T02:46:57.278Z,20.39
2022-07-29T03:02:04.180Z,20.32
2022-07-29T03:17:11.780Z,20.28
2022-07-29T03:32:17.376Z,20.28
2022-07-29T03:47:49.616Z,20.33
2022-07-29T04:02:56.739Z,20.36
2022-07-29T04:18:02.476Z,20.29
2022-07-29T04:33:09.507Z,20.33
2022-07-29T04:48:15.080Z,20.30
2022-07-29T05:03:20.756Z,20.46
2022-07-29T05:18:26.409Z,20.61
2022-07-29T05:33:34.943Z,20.80
2022-07-29T05:48:43.064Z,20.93
2022-07-29T06:03:48.786Z,20.86
2022-07-29T06:18:54.577Z,21.09
2022-07-29T06:34:00.104Z,21.27
2022-07-29T06:49:06.485Z,21.08
2022-07-29T07:04:14.724Z,20.94
2022-07-29T07:19:20.752Z,21.23
2022-07-29T07:34:28.345Z,21.39
2022-07-29T07:49:35.370Z,21.58
2022-07-29T08:04:42.138Z,21.69
2022-07-29T08:19:49.548Z,22.19
2022-07-29T08:34:55.052Z,22.80
2022-07-29T08:50:00.494Z,23.55
2022-07-29T09:05:08.250Z,24.02
2022-07-29T09:20:16.259Z,26.42
2022-07-29T09:35:24.247Z,27.17
2022-07-29T09:50:41.120Z,27.71
2022-07-29T10:05:48.267Z,27.40
2022-07-29T10:20:54.213Z,27.22
2022-07-29T10:36:10.035Z,27.45
2022-07-29T10:51:15.773Z,27.32
2022-07-29T11:06:27.057Z,26.42
2022-07-29T11:21:53.978Z,26.08
2022-07-29T11:37:28.001Z,25.01
2022-07-29T11:52:49.818Z,24.09
2022-07-29T12:07:55.775Z,23.55
2022-07-29T12:23:08.494Z,23.76
2022-07-29T12:38:15.378Z,23.57
2022-07-29T12:53:20.982Z,23.32
2022-07-29T13:08:26.510Z,23.73
2022-07-29T13:23:33.637Z,24.00
2022-07-29T13:38:44.792Z,24.39
2022-07-29T13:53:50.273Z,24.65
2022-07-29T14:08:55.884Z,24.98
2022-07-29T14:24:01.457Z,24.93
2022-07-29T14:39:06.998Z,25.10
2022-07-29T14:54:12.511Z,24.92
2022-07-29T15:09:18.111Z,25.37
2022-07-29T15:24:23.585Z,25.71
2022-07-29T15:39:29.136Z,25.88
2022-07-29T15:54:35.216Z,27.32
2022-07-29T16:09:40.630Z,27.27
2022-07-29T16:24:46.134Z,27.19
2022-07-29T16:39:51.701Z,26.82
2022-07-29T16:54:57.231Z,26.73
2022-07-29T17:10:05.291Z,26.41
2022-07-29T17:25:11.976Z,26.18
2022-07-29T17:40:26.834Z,25.94
2022-07-29T17:55:32.298Z,25.58
2022-07-29T18:10:38.246Z,25.23
2022-07-29T18:25:43.788Z,24.82
2022-07-29T18:40:49.357Z,24.25
2022-07-29T18:55:58.616Z,23.79
2022-07-29T19:11:05.856Z,23.36
2022-07-29T19:26:11.337Z,23.08
2022-07-29T19:41:25.957Z,22.87
2022-07-29T19:56:32.165Z,22.67
2022-07-29T20:11:39.851Z,22.24
2022-07-29T20:26:45.414Z,22.14
2022-07-29T20:41:51.451Z,22.05
2022-07-29T20:56:57.170Z,21.92
2022-07-29T21:12:03.267Z,21.92
2022-07-29T21:27:26.393Z,21.98
2022-07-29T21:42:32.159Z,21.95
2022-07-29T21:57:37.755Z,21.75
2022-07-29T22:12:43.561Z,21.53
2022-07-29T22:27:49.081Z,21.35
2022-07-29T22:42:54.801Z,20.94
2022-07-29T22:58:00.354Z,20.57
2022-07-29T23:13:05.878Z,19.95
2022-07-29T23:28:13.081Z,19.51
2022-07-29T23:43:19.066Z,19.05
2022-07-29T23:58:24.422Z,18.59
